Time;durP1;ratioP1;P1;durP2;ratioP2;P2;SDS_P1;SDS_P2;PMS_P1;PMS_P2;Temp;Humidity;BMP_temperature;BMP_pressure;BME280_temperature;BME280_humidity;BME280_pressure;Samples;Min_cycle;Max_cycle;Signal;HPM_P1;HPM_P2
2022/01/26 00:07:11;;;;;;;10.40;4.90;;;;;;;-4.70;64.73;96815.81;4952552;28;20114;-61
2022/01/26 00:09:37;;;;;;;13.98;6.55;;;;;;;-4.60;64.37;96822.41;4964146;28;20111;-61
2022/01/26 00:12:02;;;;;;;13.57;6.43;;;;;;;-4.76;65.03;96821.25;4963013;28;20087;-61
2022/01/26 00:14:28;;;;;;;20.30;8.25;;;;;;;-5.05;66.24;96823.06;4964031;28;20099;-62
2022/01/26 00:16:53;;;;;;;19.05;9.05;;;;;;;-4.68;64.84;96819.22;4962120;28;20095;-60
2022/01/26 00:19:31;;;;;;;18.58;6.95;;;;;;;-4.61;64.07;96815.53;4961301;28;20773;-62
2022/01/26 00:21:57;;;;;;;29.63;8.85;;;;;;;-5.11;65.94;96806.78;4971608;28;20130;-61
2022/01/26 00:24:49;;;;;;;28.38;10.48;;;;;;;-4.48;63.81;96802.91;4975998;28;20079;-61
2022/01/26 00:27:36;;;;;;;22.02;12.65;;;;;;;-3.77;62.52;96801.19;4955397;28;20343;-59
2022/01/26 00:31:59;;;;;;;15.15;7.90;;;;;;;-3.70;61.44;96807.03;4964341;28;20099;-59
2022/01/26 00:41:04;;;;;;;14.95;7.07;;;;;;;-4.71;63.48;96819.34;4964118;28;20106;-62
2022/01/26 00:43:30;;;;;;;27.92;8.55;;;;;;;-4.46;63.38;96813.25;4964238;28;20114;-61
2022/01/26 00:45:57;;;;;;;39.67;9.98;;;;;;;-4.20;61.91;96814.09;4964249;28;20107;-61
2022/01/26 00:48:23;;;;;;;15.52;7.18;;;;;;;-4.11;62.30;96802.50;4961860;28;20087;-60
2022/01/26 00:50:53;;;;;;;10.95;6.07;;;;;;;-4.26;62.91;96803.91;4951004;28;20158;-61
2022/01/26 00:53:26;;;;;;;21.45;10.07;;;;;;;-3.78;62.42;96805.56;4962434;28;20189;-61
2022/01/26 00:55:51;;;;;;;34.63;10.38;;;;;;;-3.46;60.83;96796.56;4964216;28;20087;-59
2022/01/26 00:58:17;;;;;;;14.60;7.50;;;;;;;-3.45;60.10;96796.50;4963952;28;20629;-61
2022/01/26 01:00:42;;;;;;;21.45;7.07;;;;;;;-3.93;61.84;96796.59;4963898;28;20595;-62
2022/01/26 01:03:07;;;;;;;14.48;6.63;;;;;;;-3.70;60.86;96805.28;4963502;28;20305;-61
2022/01/26 01:05:38;;;;;;;13.88;7.15;;;;;;;-4.09;62.65;96806.75;4963129;28;20110;-63
2022/01/26 01:08:09;;;;;;;9.57;5.05;;;;;;;-4.73;64.47;96805.53;4963875;28;20596;-61
2022/01/26 01:10:35;;;;;;;22.90;8.93;;;;;;;-5.21;65.46;96808.84;4963815;28;20110;-61
2022/01/26 01:13:01;;;;;;;10.90;5.40;;;;;;;-5.32;66.69;96813.53;4963743;28;20082;-60
2022/01/26 01:15:27;;;;;;;29.52;6.72;;;;;;;-5.48;67.40;96814.03;4965129;28;20115;-60
2022/01/26 01:18:02;;;;;;;11.55;5.45;;;;;;;-5.38;67.46;96811.97;4962680;28;20115;-61
2022/01/26 01:30:59;;;;;;;18.50;7.03;;;;;;;-4.15;63.46;96814.75;4962682;28;20106;-59
2022/01/26 01:33:31;;;;;;;17.15;7.15;;;;;;;-4.28;63.78;96816.13;4963935;28;20111;-61
2022/01/26 01:35:58;;;;;;;19.67;10.60;;;;;;;-4.85;65.25;96828.44;4962838;28;20123;-60
2022/01/26 01:38:27;;;;;;;30.40;7.00;;;;;;;-5.44;67.65;96830.34;4961081;28;20620;-61
2022/01/26 01:40:52;;;;;;;17.75;8.43;;;;;;;-5.44;67.09;96829.50;4961048;28;20190;-60
2022/01/26 01:43:18;;;;;;;22.38;9.57;;;;;;;-5.82;68.39;96820.25;4965451;28;20102;-61
2022/01/26 01:45:48;;;;;;;17.90;8.52;;;;;;;-5.60;68.30;96820.44;4964700;28;20501;-60
2022/01/26 01:48:17;;;;;;;12.40;5.55;;;;;;;-5.56;68.30;96816.00;4962772;28;20383;-60
2022/01/26 01:50:42;;;;;;;14.75;7.07;;;;;;;-5.13;66.05;96818.13;4962283;28;20582;-59
2022/01/26 01:53:11;;;;;;;29.40;10.05;;;;;;;-5.13;65.31;96823.34;4962413;28;20122;-62
2022/01/26 01:55:40;;;;;;;14.75;6.20;;;;;;;-5.00;65.58;96818.59;4963058;28;20122;-62
2022/01/26 01:58:06;;;;;;;33.03;8.93;;;;;;;-4.97;65.63;96824.50;4962387;28;20374;-61
2022/01/26 02:00:32;;;;;;;19.58;9.65;;;;;;;-5.05;66.65;96812.69;4963238;28;20103;-61
2022/01/26 02:02:59;;;;;;;19.73;8.93;;;;;;;-5.09;67.48;96812.78;4962020;28;20126;-59
2022/01/26 02:05:25;;;;;;;19.15;8.52;;;;;;;-5.15;67.17;96814.72;4962447;28;20106;-61
2022/01/26 02:07:50;;;;;;;15.13;7.53;;;;;;;-4.76;66.09;96808.25;4962803;28;20302;-61
2022/01/26 02:10:16;;;;;;;17.75;8.38;;;;;;;-4.47;64.20;96806.38;4960934;28;20106;-61
2022/01/26 02:12:47;;;;;;;15.50;7.43;;;;;;;-4.40;63.48;96800.06;4962231;28;20343;-61
2022/01/26 02:15:24;;;;;;;16.48;7.85;;;;;;;-4.24;62.27;96800.34;4960552;28;20111;-59
2022/01/26 02:56:07;;;;;;;17.73;8.32;;;;;;;-4.41;62.80;96790.56;4977886;28;20456;-61
2022/01/26 02:58:47;;;;;;;25.02;12.30;;;;;;;-4.27;62.53;96795.25;4966404;28;20384;-62
2022/01/26 03:06:29;;;;;;;27.35;13.25;;;;;;;-4.79;64.68;96791.00;4966354;28;20119;-63
2022/01/26 03:09:00;;;;;;;15.43;7.93;;;;;;;-4.96;65.49;96787.22;4966263;28;20564;-61
2022/01/26 03:11:29;;;;;;;24.08;10.77;;;;;;;-5.07;65.41;96789.34;4977241;28;20098;-62
2022/01/26 03:14:04;;;;;;;21.13;9.88;;;;;;;-5.22;66.15;96793.31;4966020;28;20209;-59
2022/01/26 03:16:35;;;;;;;13.70;7.18;;;;;;;-5.40;66.83;96793.00;4966252;28;20075;-61
2022/01/26 03:19:18;;;;;;;25.52;12.15;;;;;;;-5.51;66.47;96787.28;4965956;28;20113;-61
2022/01/26 03:22:18;;;;;;;28.58;12.77;;;;;;;-5.67;67.58;96784.34;4964670;28;20134;-59
2022/01/26 03:35:17;;;;;;;35.78;17.83;;;;;;;-3.75;59.92;96752.56;4979300;28;20098;-61
2022/01/26 03:37:52;;;;;;;22.88;10.57;;;;;;;-3.48;59.58;96746.28;4974992;28;20229;-59
2022/01/26 03:40:18;;;;;;;21.02;10.18;;;;;;;-3.88;60.33;96748.75;4965781;28;20099;-61
2022/01/26 03:42:43;;;;;;;23.13;11.13;;;;;;;-4.39;62.01;96747.13;4965254;28;20488;-59
2022/01/26 03:45:09;;;;;;;20.48;10.20;;;;;;;-4.70;63.00;96764.72;4965171;28;20150;-61
2022/01/26 03:47:34;;;;;;;26.15;12.60;;;;;;;-4.77;63.24;96746.78;4965655;28;20083;-62
2022/01/26 03:49:59;;;;;;;25.42;13.07;;;;;;;-4.61;62.68;96737.53;4969164;28;20114;-61
2022/01/26 03:52:25;;;;;;;19.83;9.35;;;;;;;-4.44;62.44;96736.06;4974413;28;20152;-63
2022/01/26 03:54:50;;;;;;;31.02;12.73;;;;;;;-4.65;62.88;96746.34;4965337;28;20114;-59
2022/01/26 03:57:16;;;;;;;21.90;9.48;;;;;;;-4.65;63.80;96742.91;4964887;28;20079;-62
2022/01/26 03:59:41;;;;;;;29.88;14.63;;;;;;;-4.51;63.69;96727.66;4965417;28;20248;-61
2022/01/26 04:02:06;;;;;;;26.73;14.10;;;;;;;-4.03;61.86;96735.41;4965000;28;20252;-60
2022/01/26 04:04:38;;;;;;;21.58;9.70;;;;;;;-3.64;60.50;96733.88;4965564;28;20130;-59
2022/01/26 04:07:04;;;;;;;21.77;10.05;;;;;;;-3.62;60.23;96737.28;4965055;28;20110;-61
2022/01/26 04:09:29;;;;;;;25.00;11.07;;;;;;;-4.53;63.13;96749.38;4964993;28;20107;-61
2022/01/26 04:11:54;;;;;;;30.58;12.48;;;;;;;-5.18;65.43;96763.75;4965242;28;20153;-62
2022/01/26 04:14:25;;;;;;;33.00;13.63;;;;;;;-5.59;67.66;96769.38;4964816;28;20115;-60
2022/01/26 04:16:50;;;;;;;19.33;8.82;;;;;;;-5.27;66.52;96764.88;4963105;28;20158;-60
2022/01/26 04:19:17;;;;;;;32.05;15.30;;;;;;;-5.53;66.92;96765.75;4964666;28;20170;-61
2022/01/26 04:24:19;;;;;;;25.80;10.70;;;;;;;-4.72;64.52;96761.28;4975712;28;20448;-61
2022/01/26 04:26:51;;;;;;;32.25;16.13;;;;;;;-4.31;63.07;96760.69;4964732;28;20606;-62
2022/01/26 04:29:25;;;;;;;33.90;15.70;;;;;;;-4.20;62.70;96757.72;4970937;28;20081;-63
2022/01/26 04:31:51;;;;;;;27.75;14.50;;;;;;;-3.79;61.15;96754.44;4968793;28;20106;-62
2022/01/26 04:34:16;;;;;;;25.67;13.50;;;;;;;-4.04;61.59;96747.56;4964346;28;20499;-63
2022/01/26 04:37:09;;;;;;;32.17;15.15;;;;;;;-3.48;60.46;96728.06;4964814;28;20145;-61
2022/01/26 04:39:36;;;;;;;37.08;19.33;;;;;;;-3.27;59.16;96721.97;4963626;28;20676;-60
2022/01/26 04:42:07;;;;;;;20.45;11.18;;;;;;;-3.49;60.04;96715.97;4963726;28;20178;-60
2022/01/26 04:44:45;;;;;;;19.90;8.95;;;;;;;-3.52;59.65;96696.94;4964969;28;20778;-62
2022/01/26 04:47:11;;;;;;;31.33;15.02;;;;;;;-3.37;60.21;96705.03;4964195;28;20110;-61
2022/01/26 04:49:37;;;;;;;15.45;8.30;;;;;;;-4.02;61.68;96713.69;4968423;28;20245;-62
2022/01/26 04:52:03;;;;;;;26.02;11.38;;;;;;;-3.83;61.58;96719.03;4971482;28;20111;-60
2022/01/26 04:54:28;;;;;;;25.77;10.93;;;;;;;-3.77;60.64;96712.69;4969961;28;20111;-60
2022/01/26 04:56:54;;;;;;;32.80;15.20;;;;;;;-3.32;60.00;96710.91;4964485;28;20094;-61
2022/01/26 04:59:19;;;;;;;28.88;13.15;;;;;;;-3.60;60.46;96716.41;4964150;28;20189;-62
2022/01/26 05:01:44;;;;;;;71.15;17.90;;;;;;;-3.61;59.56;96706.88;4954801;28;20123;-61
2022/01/26 05:04:10;;;;;;;43.08;15.27;;;;;;;-3.91;60.75;96710.66;4959269;28;20083;-63
2022/01/26 05:06:35;;;;;;;25.92;11.65;;;;;;;-4.15;61.27;96707.28;4958721;28;20133;-61
2022/01/26 05:09:01;;;;;;;20.60;9.55;;;;;;;-4.25;61.94;96719.78;4960062;28;20091;-59
2022/01/26 05:11:39;;;;;;;28.77;9.65;;;;;;;-4.31;62.70;96715.66;4975079;28;20102;-62
2022/01/26 05:14:04;;;;;;;42.20;13.98;;;;;;;-4.61;63.55;96719.34;4964165;28;20134;-61
2022/01/26 05:16:30;;;;;;;44.58;14.30;;;;;;;-5.26;66.00;96712.03;4960996;28;20075;-61
2022/01/26 05:18:56;;;;;;;28.05;12.43;;;;;;;-4.71;64.78;96699.78;4951555;28;20199;-60
2022/01/26 05:21:22;;;;;;;299.38;23.20;;;;;;;-4.83;64.39;96712.31;4958742;28;20182;-61
2022/01/26 05:23:47;;;;;;;47.22;14.68;;;;;;;-4.65;64.09;96715.16;4956542;28;20453;-60
2022/01/26 05:26:13;;;;;;;123.53;15.90;;;;;;;-5.30;67.28;96728.63;4963441;28;20161;-62
2022/01/26 05:28:39;;;;;;;25.02;9.57;;;;;;;-5.40;67.42;96722.91;4964151;28;20138;-61
2022/01/26 05:31:04;;;;;;;30.60;10.70;;;;;;;-4.99;66.48;96716.38;4962558;28;20179;-59
2022/01/26 05:33:30;;;;;;;35.30;10.20;;;;;;;-4.95;66.37;96725.75;4961876;28;20123;-61
2022/01/26 05:35:55;;;;;;;96.47;15.00;;;;;;;-4.52;64.96;96733.75;4976738;28;20071;-59
2022/01/26 05:38:20;;;;;;;121.70;12.88;;;;;;;-4.67;65.15;96737.75;4962114;28;20504;-60
2022/01/26 05:40:46;;;;;;;107.32;13.90;;;;;;;-5.20;67.11;96737.81;4949785;28;20104;-62
2022/01/26 05:43:11;;;;;;;327.55;20.38;;;;;;;-4.70;65.13;96736.13;4957873;28;20106;-62
2022/01/26 05:45:39;;;;;;;94.07;13.95;;;;;;;-4.99;66.44;96750.13;4968343;28;20099;-61
2022/01/26 05:48:09;;;;;;;27.98;9.50;;;;;;;-5.21;67.26;96753.44;4964183;28;20548;-61
2022/01/26 05:50:37;;;;;;;31.88;11.23;;;;;;;-5.04;67.08;96759.81;4950518;28;20107;-61
2022/01/26 05:53:02;;;;;;;46.30;18.50;;;;;;;-5.00;65.47;96764.03;4966645;28;20857;-61
2022/01/26 05:55:27;;;;;;;31.75;13.88;;;;;;;-4.83;65.83;96760.81;4966931;28;20079;-60
2022/01/26 05:57:53;;;;;;;29.08;12.23;;;;;;;-5.26;66.81;96751.00;4967299;28;20125;-62
2022/01/26 06:00:18;;;;;;;39.63;17.35;;;;;;;-5.69;68.39;96768.81;4972317;28;20159;-61
2022/01/26 06:02:44;;;;;;;28.55;11.40;;;;;;;-6.02;69.99;96768.94;4969709;28;20114;-61
2022/01/26 06:05:10;;;;;;;42.30;17.70;;;;;;;-5.79;69.42;96778.66;4966153;28;20087;-61
2022/01/26 06:07:35;;;;;;;28.58;12.05;;;;;;;-5.65;69.39;96790.34;4966786;28;20083;-59
2022/01/26 06:10:01;;;;;;;19.25;10.02;;;;;;;-5.46;68.49;96793.22;4966443;28;20126;-60
2022/01/26 06:12:29;;;;;;;20.67;9.80;;;;;;;-5.20;67.12;96788.91;4952817;28;20087;-60
2022/01/26 06:14:55;;;;;;;116.57;26.40;;;;;;;-6.43;71.74;96798.66;4961445;28;20162;-61
2022/01/26 06:17:20;;;;;;;129.20;20.33;;;;;;;-6.80;74.17;96784.13;4964629;28;20659;-62
2022/01/26 06:19:45;;;;;;;41.05;13.38;;;;;;;-6.26;72.03;96785.22;4966837;28;20461;-61
2022/01/26 06:22:11;;;;;;;29.90;11.52;;;;;;;-5.92;71.33;96783.34;4966204;28;20612;-62
2022/01/26 06:24:36;;;;;;;45.78;15.55;;;;;;;-5.79;70.36;96789.03;4967045;28;20086;-59
2022/01/26 06:27:02;;;;;;;50.30;17.75;;;;;;;-5.40;69.03;96779.19;4965388;28;20172;-60
2022/01/26 06:29:27;;;;;;;29.48;12.45;;;;;;;-5.22;67.94;96780.31;4964539;28;20107;-59
2022/01/26 06:31:53;;;;;;;31.45;13.52;;;;;;;-5.27;67.87;96779.63;4956207;28;20102;-61
2022/01/26 06:34:18;;;;;;;29.00;14.13;;;;;;;-4.95;66.76;96767.31;4963362;28;20517;-61
2022/01/26 06:36:43;;;;;;;32.58;9.88;;;;;;;-5.15;67.15;96768.84;4950119;28;20143;-61
2022/01/26 06:39:10;;;;;;;29.80;13.75;;;;;;;-4.80;66.27;96752.94;4965963;28;20115;-60
2022/01/26 06:41:36;;;;;;;31.60;14.95;;;;;;;-4.32;64.57;96743.41;4961044;28;20588;-62
2022/01/26 06:44:13;;;;;;;24.08;12.25;;;;;;;-4.53;64.04;96746.78;4967040;28;20083;-61
2022/01/26 06:46:54;;;;;;;22.77;11.38;;;;;;;-5.07;66.24;96761.63;4954545;28;20165;-60
2022/01/26 06:49:28;;;;;;;17.75;9.50;;;;;;;-4.92;65.55;96759.41;4965934;28;20083;-59
2022/01/26 06:51:54;;;;;;;30.02;13.48;;;;;;;-4.50;64.31;96760.53;4955319;28;20173;-62
2022/01/26 06:54:19;;;;;;;34.65;11.88;;;;;;;-5.33;66.38;96760.75;4965317;28;20111;-60
2022/01/26 06:56:45;;;;;;;33.00;13.38;;;;;;;-5.89;68.84;96746.09;4953938;28;20540;-62
2022/01/26 06:59:11;;;;;;;31.60;13.43;;;;;;;-5.78;69.34;96753.56;4966090;28;20461;-60
2022/01/26 07:01:37;;;;;;;33.90;13.93;;;;;;;-6.22;70.16;96752.25;4961889;28;20150;-62
2022/01/26 07:04:03;;;;;;;25.00;11.23;;;;;;;-5.73;68.89;96751.66;4960266;28;20098;-63
2022/01/26 07:06:28;;;;;;;34.53;14.70;;;;;;;-6.48;71.13;96769.44;4965276;28;20652;-61
2022/01/26 07:08:54;;;;;;;37.58;19.23;;;;;;;-6.89;72.44;96775.69;4961802;28;20109;-62
2022/01/26 07:11:19;;;;;;;38.53;15.65;;;;;;;-6.76;72.31;96759.84;4952452;28;20138;-61
2022/01/26 07:13:45;;;;;;;45.53;16.23;;;;;;;-6.31;70.79;96770.69;4962876;28;20115;-61
2022/01/26 07:21:39;;;;;;;21.58;10.50;;;;;;;-5.43;67.26;96743.78;4965510;28;20146;-62
2022/01/26 07:24:05;;;;;;;28.10;13.45;;;;;;;-5.34;66.25;96743.47;4966305;28;20087;-60
2022/01/26 07:26:30;;;;;;;33.33;14.05;;;;;;;-5.20;66.53;96736.97;4965520;28;20200;-62
2022/01/26 07:28:57;;;;;;;25.13;11.90;;;;;;;-5.22;66.11;96749.16;4967947;28;20606;-62
2022/01/26 07:31:23;;;;;;;40.15;17.23;;;;;;;-5.20;65.81;96765.53;4974716;28;20458;-62
2022/01/26 07:33:53;;;;;;;58.00;25.65;;;;;;;-6.06;68.65;96772.53;4965673;28;20110;-61
2022/01/26 07:36:19;;;;;;;34.85;16.08;;;;;;;-5.86;68.21;96777.13;4965882;28;20095;-61
2022/01/26 07:38:44;;;;;;;30.10;13.98;;;;;;;-5.61;67.36;96740.88;4965200;28;20120;-61
2022/01/26 07:41:10;;;;;;;25.45;10.55;;;;;;;-5.62;67.36;96736.59;4964667;28;20560;-60
2022/01/26 07:43:35;;;;;;;47.92;19.83;;;;;;;-5.56;67.06;96747.66;4965633;28;20090;-60
2022/01/26 07:46:01;;;;;;;38.15;17.15;;;;;;;-5.77;67.39;96763.03;4963139;28;20106;-62
2022/01/26 07:48:26;;;;;;;25.08;12.30;;;;;;;-5.87;68.59;96765.91;4954078;28;20094;-62
2022/01/26 07:50:52;;;;;;;39.22;17.63;;;;;;;-5.89;68.41;96766.84;4965021;28;20161;-61
2022/01/26 07:53:18;;;;;;;29.50;12.63;;;;;;;-5.57;67.30;96757.22;4965079;28;20800;-61
2022/01/26 07:55:44;;;;;;;30.77;13.25;;;;;;;-5.58;67.52;96752.91;4966536;28;20682;-62
2022/01/26 07:58:10;;;;;;;32.72;14.02;;;;;;;-4.97;65.78;96761.31;4965161;28;20099;-62
2022/01/26 08:00:36;;;;;;;36.22;15.18;;;;;;;-4.78;65.10;96760.66;4954416;28;20596;-62
2022/01/26 08:03:01;;;;;;;28.48;13.50;;;;;;;-5.16;66.66;96748.97;4942341;28;20115;-61
2022/01/26 08:05:27;;;;;;;35.90;15.95;;;;;;;-5.15;65.95;96765.38;4953638;28;20114;-61
2022/01/26 08:07:52;;;;;;;46.13;18.63;;;;;;;-5.90;68.93;96744.41;4949670;28;20456;-60
2022/01/26 08:10:17;;;;;;;21.52;10.98;;;;;;;-5.61;68.15;96748.66;4956033;28;20666;-62
2022/01/26 08:12:43;;;;;;;51.30;19.33;;;;;;;-5.56;67.84;96745.94;4951469;28;20662;-61
2022/01/26 08:15:08;;;;;;;33.75;13.27;;;;;;;-5.65;68.30;96735.84;4955549;28;20587;-60
2022/01/26 08:17:35;;;;;;;33.13;15.02;;;;;;;-5.83;69.40;96735.53;4950581;28;20115;-62
2022/01/26 08:20:02;;;;;;;48.78;15.52;;;;;;;-5.86;69.30;96731.31;4952199;28;20468;-59
2022/01/26 08:22:28;;;;;;;42.67;16.70;;;;;;;-5.22;67.52;96728.38;4953715;28;20628;-60
2022/01/26 08:24:54;;;;;;;39.90;16.10;;;;;;;-5.67;68.77;96733.31;4955358;28;20782;-63
2022/01/26 08:27:22;;;;;;;45.97;14.82;;;;;;;-5.66;68.78;96745.38;4950239;28;20107;-61
2022/01/26 08:29:54;;;;;;;26.08;11.60;;;;;;;-5.12;67.50;96747.09;4958262;28;20107;-61
2022/01/26 08:32:20;;;;;;;61.03;18.20;;;;;;;-4.65;65.27;96748.09;4956855;28;20079;-61
2022/01/26 08:34:45;;;;;;;38.20;16.08;;;;;;;-5.31;68.26;96759.88;4946566;28;20111;-60
2022/01/26 08:37:11;;;;;;;64.18;16.95;;;;;;;-5.54;68.60;96766.66;4949870;28;20186;-61
2022/01/26 08:39:36;;;;;;;58.35;19.92;;;;;;;-5.67;69.16;96774.84;4951184;28;20620;-63
2022/01/26 08:42:02;;;;;;;26.73;10.93;;;;;;;-5.57;68.75;96767.59;4958123;28;20107;-63
2022/01/26 08:44:27;;;;;;;46.90;15.32;;;;;;;-5.60;69.12;96771.13;4951390;28;20103;-60
2022/01/26 08:46:54;;;;;;;36.95;16.17;;;;;;;-5.70;68.58;96768.88;4955760;28;20103;-62
2022/01/26 08:49:21;;;;;;;52.67;19.50;;;;;;;-6.08;69.94;96771.75;4960376;28;20185;-62
2022/01/26 08:51:51;;;;;;;29.13;11.80;;;;;;;-5.60;68.92;96772.88;4959926;28;20107;-60
2022/01/26 08:54:19;;;;;;;29.33;11.43;;;;;;;-5.25;67.50;96777.81;4958176;28;20150;-61
2022/01/26 08:56:45;;;;;;;67.50;21.50;;;;;;;-6.11;71.55;96781.31;4959430;28;20075;-59
2022/01/26 08:59:11;;;;;;;36.28;15.05;;;;;;;-6.15;72.07;96779.69;4955376;28;20324;-58
2022/01/26 09:01:36;;;;;;;101.78;19.02;;;;;;;-6.21;71.46;96792.88;4950541;28;20196;-60
2022/01/26 09:04:02;;;;;;;39.83;13.23;;;;;;;-6.24;71.84;96778.25;4944696;28;20094;-57
2022/01/26 09:06:27;;;;;;;47.10;13.32;;;;;;;-6.18;72.00;96774.59;4956248;28;20106;-59
2022/01/26 09:09:00;;;;;;;76.40;13.90;;;;;;;-6.24;72.57;96767.03;4955067;28;20142;-57
2022/01/26 09:11:26;;;;;;;30.98;12.82;;;;;;;-5.99;71.63;96784.44;4948173;28;20247;-61
2022/01/26 09:13:57;;;;;;;62.95;13.85;;;;;;;-5.89;71.82;96790.19;4954556;28;20946;-58
2022/01/26 09:16:24;;;;;;;25.55;10.40;;;;;;;-5.27;69.80;96803.00;4959076;28;20079;-58
2022/01/26 09:18:57;;;;;;;79.70;15.57;;;;;;;-5.03;67.84;96792.72;4950771;28;20104;-61
2022/01/26 09:21:24;;;;;;;169.50;18.95;;;;;;;-5.19;68.68;96788.03;4968569;28;20099;-59
2022/01/26 09:23:49;;;;;;;46.28;10.23;;;;;;;-5.39;70.06;96801.66;4974086;28;20089;-59
2022/01/26 09:26:15;;;;;;;241.63;21.17;;;;;;;-5.07;68.63;96795.41;4955098;28;20190;-60
2022/01/26 09:28:40;;;;;;;200.10;19.08;;;;;;;-5.52;69.56;96791.66;4956640;28;20464;-58
2022/01/26 09:31:06;;;;;;;113.70;19.92;;;;;;;-5.96;71.59;96802.50;4960566;28;20103;-61
2022/01/26 09:33:31;;;;;;;152.13;19.92;;;;;;;-5.97;72.02;96811.19;4956874;28;20147;-61
2022/01/26 09:35:56;;;;;;;120.10;17.35;;;;;;;-5.82;70.98;96811.63;4959451;28;20087;-60
2022/01/26 09:38:22;;;;;;;119.63;20.02;;;;;;;-6.38;72.60;96817.50;4955450;28;20107;-62
2022/01/26 09:40:48;;;;;;;134.63;26.15;;;;;;;-6.94;75.49;96829.34;4963372;28;20338;-60
2022/01/26 09:43:14;;;;;;;204.70;31.48;;;;;;;-7.23;76.15;96820.59;4957923;28;20129;-57
2022/01/26 09:45:39;;;;;;;191.43;25.80;;;;;;;-7.44;77.69;96821.94;4964535;28;20148;-57
2022/01/26 09:48:05;;;;;;;141.00;22.30;;;;;;;-7.25;76.87;96832.69;4962768;28;20087;-59
2022/01/26 09:50:31;;;;;;;160.60;27.08;;;;;;;-7.58;78.46;96817.09;4949657;28;20099;-58
2022/01/26 09:52:57;;;;;;;179.02;27.73;;;;;;;-7.47;78.37;96817.69;4953904;28;20123;-58
2022/01/26 09:55:23;;;;;;;91.07;16.88;;;;;;;-7.04;77.07;96817.50;4958941;28;20133;-59
2022/01/26 09:57:48;;;;;;;139.13;20.98;;;;;;;-6.81;75.93;96823.84;4955632;28;20563;-63
2022/01/26 10:00:14;;;;;;;136.02;19.15;;;;;;;-6.43;74.32;96821.97;4954795;28;20107;-63
2022/01/26 10:02:41;;;;;;;32.33;9.90;;;;;;;-5.74;71.72;96817.44;4961097;28;20161;-61
2022/01/26 10:05:08;;;;;;;185.90;21.13;;;;;;;-5.75;71.21;96826.09;4953215;28;20081;-62
2022/01/26 10:08:10;;;;;;;143.20;19.85;;;;;;;-5.75;71.59;96833.88;4946746;28;20146;-62
2022/01/26 10:18:39;;;;;;;55.22;14.70;;;;;;;-5.67;71.98;96823.28;4951523;28;20170;-62
2022/01/26 10:21:07;;;;;;;63.97;15.18;;;;;;;-6.05;72.74;96818.34;4949610;28;20091;-60
2022/01/26 10:23:40;;;;;;;131.93;16.80;;;;;;;-5.89;72.47;96814.41;4946777;28;20095;-61
2022/01/26 10:26:12;;;;;;;218.73;18.77;;;;;;;-6.00;72.52;96808.69;4952913;28;20142;-64
2022/01/26 10:28:47;;;;;;;54.45;12.32;;;;;;;-5.12;69.72;96814.63;4954653;28;20169;-62
2022/01/26 10:31:16;;;;;;;152.82;19.25;;;;;;;-5.46;70.47;96812.22;4958987;28;20738;-63
2022/01/26 10:34:09;;;;;;;110.85;14.93;;;;;;;-5.72;71.46;96810.44;4960674;28;20189;-63
2022/01/26 10:36:42;;;;;;;60.70;13.15;;;;;;;-5.86;72.42;96816.03;4952449;28;20092;-61
2022/01/26 10:39:12;;;;;;;196.38;18.00;;;;;;;-5.89;72.30;96810.94;4950243;28;20099;-62
2022/01/26 10:41:43;;;;;;;177.95;21.55;;;;;;;-6.28;72.74;96814.66;4958833;28;20121;-63
2022/01/26 10:44:08;;;;;;;218.48;27.85;;;;;;;-6.80;74.88;96822.97;4949356;28;20202;-62
2022/01/26 10:46:39;;;;;;;103.30;17.27;;;;;;;-6.71;74.19;96820.13;4961953;28;20198;-71
2022/01/26 10:49:44;;;;;;;46.53;12.70;;;;;;;-5.83;71.47;96805.59;4964664;28;20222;-72
2022/01/26 10:52:31;;;;;;;295.38;25.85;;;;;;;-5.65;70.22;96806.75;4959331;28;20605;-73
2022/01/26 10:54:57;;;;;;;274.08;29.20;;;;;;;-6.59;73.56;96812.94;4952119;28;20114;-71
2022/01/26 10:57:24;;;;;;;81.28;15.05;;;;;;;-6.07;72.04;96815.78;4939008;28;20079;-69
2022/01/26 10:59:50;;;;;;;56.53;15.65;;;;;;;-6.03;71.24;96798.38;4966385;28;20094;-71
2022/01/26 11:02:21;;;;;;;75.93;17.60;;;;;;;-6.15;71.44;96797.84;4965547;28;20115;-69
2022/01/26 11:04:46;;;;;;;45.75;16.88;;;;;;;-6.44;72.23;96796.94;4949877;28;20082;-72
2022/01/26 11:07:12;;;;;;;44.55;17.30;;;;;;;-6.39;72.37;96799.44;4964048;28;20661;-71
2022/01/26 11:09:41;;;;;;;63.97;27.30;;;;;;;-6.95;74.07;96811.25;4959053;28;20133;-72
2022/01/26 11:12:11;;;;;;;51.08;20.02;;;;;;;-6.93;74.59;96812.91;4965783;28;20071;-71
2022/01/26 11:14:40;;;;;;;48.90;20.05;;;;;;;-6.46;72.42;96818.63;4963006;28;20580;-67
2022/01/26 11:17:06;;;;;;;54.45;20.90;;;;;;;-5.85;70.05;96803.03;4959706;28;20083;-70
2022/01/26 11:19:45;;;;;;;34.85;13.65;;;;;;;-5.13;68.13;96818.13;4965915;28;20202;-72
2022/01/26 11:22:11;;;;;;;;;;;;;;;-4.76;67.05;96818.66;4965335;28;20261;-69
2022/01/26 11:24:47;;;;;;;46.47;18.83;;;;;;;-5.59;68.50;96821.28;4963037;28;20662;-72
2022/01/26 11:27:13;;;;;;;38.70;15.68;;;;;;;-5.90;69.53;96825.69;4964186;28;20110;-69
2022/01/26 11:29:43;;;;;;;39.75;14.88;;;;;;;-5.75;69.46;96811.38;4947960;28;20103;-70
2022/01/26 11:32:14;;;;;;;29.02;12.27;;;;;;;-5.78;69.69;96801.09;4957957;28;20187;-73
2022/01/26 11:34:40;;;;;;;43.88;16.88;;;;;;;-5.69;69.50;96796.50;4954903;28;20103;-69
2022/01/26 11:37:11;;;;;;;39.50;13.90;;;;;;;-5.49;69.04;96788.09;4982954;28;20185;-70
2022/01/26 11:45:02;;;;;;;44.30;18.02;;;;;;;-5.40;68.33;96789.56;4945874;28;20249;-71
2022/01/26 11:45:28;;;;;;;36.95;15.48;;;;;;;-4.79;67.33;96796.19;4945968;28;20083;-72
2022/01/26 11:48:09;;;;;;;27.67;9.98;;;;;;;-4.30;65.94;96788.44;4953565;28;20571;-71
2022/01/26 11:50:42;;;;;;;35.65;13.30;;;;;;;-3.91;65.63;96781.78;4964554;28;20098;-72
2022/01/26 11:53:09;;;;;;;29.90;11.90;;;;;;;-3.88;64.51;96778.19;4967329;28;20614;-72
2022/01/26 11:55:44;;;;;;;40.45;16.75;;;;;;;-3.48;62.96;96787.97;4965453;28;20099;-72
2022/01/26 11:58:18;;;;;;;40.28;17.05;;;;;;;-2.91;60.63;96787.41;4964880;28;20110;-70
2022/01/26 12:01:07;;;;;;;37.50;12.50;;;;;;;-3.08;61.47;96791.56;4964393;28;20102;-72
2022/01/26 12:03:34;;;;;;;26.85;12.13;;;;;;;-3.24;61.95;96798.28;4962846;28;20115;-73
2022/01/26 12:06:00;;;;;;;44.05;16.98;;;;;;;-3.11;60.97;96802.09;4965475;28;20110;-71
2022/01/26 12:08:32;;;;;;;30.00;11.18;;;;;;;-3.12;61.22;96804.78;4961938;28;20640;-70
2022/01/26 12:10:57;;;;;;;29.27;12.32;;;;;;;-3.34;61.50;96808.22;4971643;28;20091;-69
2022/01/26 12:13:27;;;;;;;39.63;16.42;;;;;;;-2.98;60.29;96804.19;4946074;28;20111;-72
2022/01/26 12:16:02;;;;;;;40.42;17.10;;;;;;;-2.62;58.98;96795.72;4951284;28;20083;-72
2022/01/26 12:18:45;;;;;;;35.40;13.55;;;;;;;-2.88;59.83;96793.31;4957563;28;20099;-73
2022/01/26 12:35:54;;;;;;;40.78;16.48;;;;;;;-3.10;61.29;96816.81;4962724;28;20110;-71
2022/01/26 12:38:33;;;;;;;44.63;16.20;;;;;;;-3.89;62.98;96823.34;4952639;28;20114;-71
2022/01/26 12:43:38;;;;;;;34.65;15.02;;;;;;;-3.98;63.43;96805.50;4960492;28;20145;-72
2022/01/26 12:46:06;;;;;;;29.60;12.25;;;;;;;-4.10;64.22;96804.19;4964030;28;20103;-70
2022/01/26 12:48:34;;;;;;;25.02;10.32;;;;;;;-4.35;65.10;96792.09;4962040;28;20079;-70
2022/01/26 12:50:59;;;;;;;24.10;10.32;;;;;;;-4.20;64.96;96786.34;4952734;28;20524;-70
2022/01/26 12:53:25;;;;;;;44.33;15.02;;;;;;;-3.37;62.76;96774.53;4972804;28;20154;-73
2022/01/26 12:55:59;;;;;;;38.55;15.40;;;;;;;-2.92;60.75;96778.72;4944837;28;20552;-72
2022/01/26 12:58:29;;;;;;;33.58;15.07;;;;;;;-3.15;62.20;96772.72;4962894;28;20190;-72
2022/01/26 13:00:59;;;;;;;32.95;13.98;;;;;;;-3.29;61.72;96775.06;4963008;28;20313;-72
2022/01/26 13:03:31;;;;;;;26.13;11.10;;;;;;;-3.10;60.96;96784.69;4963090;28;20103;-70
2022/01/26 13:06:07;;;;;;;27.38;12.57;;;;;;;-3.79;63.37;96793.47;4964125;28;20111;-73
2022/01/26 13:08:54;;;;;;;28.08;12.55;;;;;;;-3.42;62.35;96792.94;4961744;28;21655;-72
2022/01/26 13:11:23;;;;;;;25.80;10.77;;;;;;;-3.07;60.93;96793.25;4961041;28;20656;-73
2022/01/26 13:13:49;;;;;;;37.35;13.68;;;;;;;-3.12;61.92;96782.19;4964823;28;20623;-74
2022/01/26 13:16:21;;;;;;;23.52;10.50;;;;;;;-3.23;61.65;96787.81;4966288;28;20079;-74
2022/01/26 13:35:55;;;;;;;24.63;10.95;;;;;;;-4.02;64.08;96757.91;4921297;29;20151;-73
2022/01/26 13:49:46;;;;;;;38.30;14.05;;;;;;;-4.60;66.75;96770.41;4963391;28;20094;-71